sensor_id;sensor_type;location;lat;lon;timestamp;temperature;humidity
72936;DHT22;61085;48.804;9.228;2022-12-05T00:01:37;4.80;99.90
72936;DHT22;61085;48.804;9.228;2022-12-05T00:04:08;5.00;99.90
72936;DHT22;61085;48.804;9.228;2022-12-05T00:06:36;4.90;99.90
72936;DHT22;61085;48.804;9.228;2022-12-05T00:09:03;4.90;99.90
72936;DHT22;61085;48.804;9.228;2022-12-05T00:11:30;4.90;99.90
72936;DHT22;61085;48.804;9.228;2022-12-05T00:13:57;4.90;99.90
72936;DHT22;61085;48.804;9.228;2022-12-05T00:16:25;5.00;99.90
72936;DHT22;61085;48.804;9.228;2022-12-05T00:18:51;4.90;99.90
72936;DHT22;61085;48.804;9.228;2022-12-05T00:21:20;4.90;99.90
72936;DHT22;61085;48.804;9.228;2022-12-05T00:23:46;4.80;99.90
72936;DHT22;61085;48.804;9.228;2022-12-05T00:26:12;4.90;99.90
72936;DHT22;61085;48.804;9.228;2022-12-05T00:28:39;4.90;99.90
72936;DHT22;61085;48.804;9.228;2022-12-05T00:31:07;4.90;99.90
72936;DHT22;61085;48.804;9.228;2022-12-05T00:33:33;4.90;99.90
72936;DHT22;61085;48.804;9.228;2022-12-05T00:36:03;4.80;99.90
72936;DHT22;61085;48.804;9.228;2022-12-05T00:38:30;4.80;99.90
72936;DHT22;61085;48.804;9.228;2022-12-05T00:40:55;4.90;99.90
72936;DHT22;61085;48.804;9.228;2022-12-05T00:43:21;4.80;99.90
72936;DHT22;61085;48.804;9.228;2022-12-05T00:45:47;4.90;99.90
72936;DHT22;61085;48.804;9.228;2022-12-05T00:48:12;4.80;99.90
72936;DHT22;61085;48.804;9.228;2022-12-05T00:50:38;4.80;99.90
72936;DHT22;61085;48.804;9.228;2022-12-05T00:53:03;4.70;99.90
72936;DHT22;61085;48.804;9.228;2022-12-05T00:55:29;4.70;99.90
72936;DHT22;61085;48.804;9.228;2022-12-05T00:57:55;4.90;99.90
72936;DHT22;61085;48.804;9.228;2022-12-05T01:00:20;4.90;99.90
72936;DHT22;61085;48.804;9.228;2022-12-05T01:02:46;4.80;99.90
72936;DHT22;61085;48.804;9.228;2022-12-05T01:05:11;4.70;99.90
72936;DHT22;61085;48.804;9.228;2022-12-05T01:07:37;4.70;99.90
72936;DHT22;61085;48.804;9.228;2022-12-05T01:10:03;4.80;99.90
72936;DHT22;61085;48.804;9.228;2022-12-05T01:12:29;4.80;99.90
72936;DHT22;61085;48.804;9.228;2022-12-05T01:14:55;4.80;99.90
72936;DHT22;61085;48.804;9.228;2022-12-05T01:17:21;4.80;99.90
72936;DHT22;61085;48.804;9.228;2022-12-05T01:19:46;4.70;99.90
72936;DHT22;61085;48.804;9.228;2022-12-05T01:22:12;4.80;99.90
72936;DHT22;61085;48.804;9.228;2022-12-05T01:24:37;4.80;99.90
72936;DHT22;61085;48.804;9.228;2022-12-05T01:27:03;4.80;99.90
72936;DHT22;61085;48.804;9.228;2022-12-05T01:29:29;4.80;99.90
72936;DHT22;61085;48.804;9.228;2022-12-05T01:31:54;4.80;99.90
72936;DHT22;61085;48.804;9.228;2022-12-05T01:34:21;4.90;99.90
72936;DHT22;61085;48.804;9.228;2022-12-05T01:36:47;4.80;99.90
72936;DHT22;61085;48.804;9.228;2022-12-05T01:39:14;4.80;99.90
72936;DHT22;61085;48.804;9.228;2022-12-05T01:41:45;4.90;99.90
72936;DHT22;61085;48.804;9.228;2022-12-05T01:46:48;4.80;99.90
72936;DHT22;61085;48.804;9.228;2022-12-05T01:49:27;4.80;99.90
72936;DHT22;61085;48.804;9.228;2022-12-05T01:51:57;4.80;99.90
72936;DHT22;61085;48.804;9.228;2022-12-05T01:54:25;4.80;99.90
72936;DHT22;61085;48.804;9.228;2022-12-05T01:57:00;4.80;99.90
72936;DHT22;61085;48.804;9.228;2022-12-05T01:59:29;4.80;99.90
72936;DHT22;61085;48.804;9.228;2022-12-05T02:01:56;4.80;99.90
72936;DHT22;61085;48.804;9.228;2022-12-05T02:04:22;4.80;99.90
72936;DHT22;61085;48.804;9.228;2022-12-05T02:06:48;4.80;99.90
72936;DHT22;61085;48.804;9.228;2022-12-05T02:09:13;4.80;99.90
72936;DHT22;61085;48.804;9.228;2022-12-05T02:11:56;4.70;99.90
72936;DHT22;61085;48.804;9.228;2022-12-05T02:17:34;4.80;99.90
72936;DHT22;61085;48.804;9.228;2022-12-05T02:31:02;4.80;99.90
72936;DHT22;61085;48.804;9.228;2022-12-05T02:36:50;4.80;99.90
72936;DHT22;61085;48.804;9.228;2022-12-05T02:41:54;4.80;99.90
72936;DHT22;61085;48.804;9.228;2022-12-05T02:45:18;4.80;99.90
72936;DHT22;61085;48.804;9.228;2022-12-05T02:47:27;4.90;99.90
72936;DHT22;61085;48.804;9.228;2022-12-05T02:49:55;4.90;99.90
72936;DHT22;61085;48.804;9.228;2022-12-05T02:52:22;4.80;99.90
72936;DHT22;61085;48.804;9.228;2022-12-05T02:54:50;4.80;99.90
72936;DHT22;61085;48.804;9.228;2022-12-05T02:57:18;4.80;99.90
72936;DHT22;61085;48.804;9.228;2022-12-05T02:59:45;4.80;99.90
72936;DHT22;61085;48.804;9.228;2022-12-05T03:02:31;4.80;99.90
72936;DHT22;61085;48.804;9.228;2022-12-05T03:05:14;4.90;99.90
72936;DHT22;61085;48.804;9.228;2022-12-05T03:07:44;4.80;99.90
72936;DHT22;61085;48.804;9.228;2022-12-05T03:10:11;4.80;99.90
72936;DHT22;61085;48.804;9.228;2022-12-05T03:12:44;4.80;99.90
72936;DHT22;61085;48.804;9.228;2022-12-05T03:15:23;4.90;99.90
72936;DHT22;61085;48.804;9.228;2022-12-05T03:17:52;4.90;99.90
72936;DHT22;61085;48.804;9.228;2022-12-05T03:20:24;4.80;99.90
72936;DHT22;61085;48.804;9.228;2022-12-05T03:23:20;4.80;99.90
72936;DHT22;61085;48.804;9.228;2022-12-05T03:28:41;4.70;99.90
72936;DHT22;61085;48.804;9.228;2022-12-05T03:31:13;4.80;99.90
72936;DHT22;61085;48.804;9.228;2022-12-05T03:33:44;4.90;99.90
72936;DHT22;61085;48.804;9.228;2022-12-05T03:36:19;4.90;99.90
72936;DHT22;61085;48.804;9.228;2022-12-05T03:41:24;4.80;99.90
72936;DHT22;61085;48.804;9.228;2022-12-05T03:43:53;4.90;99.90
72936;DHT22;61085;48.804;9.228;2022-12-05T03:46:27;4.80;99.90
72936;DHT22;61085;48.804;9.228;2022-12-05T03:48:58;4.80;99.90
72936;DHT22;61085;48.804;9.228;2022-12-05T03:51:44;4.80;99.90
72936;DHT22;61085;48.804;9.228;2022-12-05T03:54:16;4.80;99.90
72936;DHT22;61085;48.804;9.228;2022-12-05T03:56:46;4.90;99.90
72936;DHT22;61085;48.804;9.228;2022-12-05T03:59:36;5.00;99.90
72936;DHT22;61085;48.804;9.228;2022-12-05T04:02:08;4.90;99.90
72936;DHT22;61085;48.804;9.228;2022-12-05T04:04:51;4.90;99.90
72936;DHT22;61085;48.804;9.228;2022-12-05T04:07:19;5.10;99.90
72936;DHT22;61085;48.804;9.228;2022-12-05T04:09:53;5.00;99.90
72936;DHT22;61085;48.804;9.228;2022-12-05T04:12:23;5.10;99.90
72936;DHT22;61085;48.804;9.228;2022-12-05T04:14:55;4.90;99.90
72936;DHT22;61085;48.804;9.228;2022-12-05T04:17:59;5.00;99.90
72936;DHT22;61085;48.804;9.228;2022-12-05T04:20:29;5.10;99.90
72936;DHT22;61085;48.804;9.228;2022-12-05T04:23:15;5.00;99.90
72936;DHT22;61085;48.804;9.228;2022-12-05T04:26:22;4.90;99.90
72936;DHT22;61085;48.804;9.228;2022-12-05T04:28:53;4.80;99.90
72936;DHT22;61085;48.804;9.228;2022-12-05T04:31:29;4.70;99.90
72936;DHT22;61085;48.804;9.228;2022-12-05T04:34:04;4.70;99.90
72936;DHT22;61085;48.804;9.228;2022-12-05T04:36:59;4.70;99.90
72936;DHT22;61085;48.804;9.228;2022-12-05T04:39:45;4.70;99.90
72936;DHT22;61085;48.804;9.228;2022-12-05T04:42:21;4.80;99.90
72936;DHT22;61085;48.804;9.228;2022-12-05T04:44:54;4.90;99.90
72936;DHT22;61085;48.804;9.228;2022-12-05T04:47:33;4.90;99.90
72936;DHT22;61085;48.804;9.228;2022-12-05T04:50:01;4.90;99.90
72936;DHT22;61085;48.804;9.228;2022-12-05T04:52:28;4.80;99.90
72936;DHT22;61085;48.804;9.228;2022-12-05T04:55:13;4.90;99.90
72936;DHT22;61085;48.804;9.228;2022-12-05T05:00:05;4.80;99.90
72936;DHT22;61085;48.804;9.228;2022-12-05T05:02:37;4.80;99.90
72936;DHT22;61085;48.804;9.228;2022-12-05T05:05:08;4.90;99.90
72936;DHT22;61085;48.804;9.228;2022-12-05T05:07:46;4.90;99.90
72936;DHT22;61085;48.804;9.228;2022-12-05T05:10:15;5.00;99.90
72936;DHT22;61085;48.804;9.228;2022-12-05T05:12:42;5.10;99.90
72936;DHT22;61085;48.804;9.228;2022-12-05T05:15:08;5.00;99.90
72936;DHT22;61085;48.804;9.228;2022-12-05T05:17:34;5.10;99.90
72936;DHT22;61085;48.804;9.228;2022-12-05T05:20:00;5.00;99.90
72936;DHT22;61085;48.804;9.228;2022-12-05T05:22:47;5.10;99.90
72936;DHT22;61085;48.804;9.228;2022-12-05T05:25:13;5.20;99.90
72936;DHT22;61085;48.804;9.228;2022-12-05T05:27:38;5.20;99.90
72936;DHT22;61085;48.804;9.228;2022-12-05T05:30:04;5.30;99.90
72936;DHT22;61085;48.804;9.228;2022-12-05T05:32:31;5.30;99.90
72936;DHT22;61085;48.804;9.228;2022-12-05T05:34:57;5.30;99.90
72936;DHT22;61085;48.804;9.228;2022-12-05T05:37:23;5.20;99.90
72936;DHT22;61085;48.804;9.228;2022-12-05T05:39:48;5.10;99.90
72936;DHT22;61085;48.804;9.228;2022-12-05T05:42:14;5.20;99.90
72936;DHT22;61085;48.804;9.228;2022-12-05T05:44:40;5.20;99.90
72936;DHT22;61085;48.804;9.228;2022-12-05T05:47:05;5.30;99.90
72936;DHT22;61085;48.804;9.228;2022-12-05T05:49:31;5.20;99.90
72936;DHT22;61085;48.804;9.228;2022-12-05T05:51:56;5.20;99.90
72936;DHT22;61085;48.804;9.228;2022-12-05T05:54:22;5.20;99.90
72936;DHT22;61085;48.804;9.228;2022-12-05T05:56:48;5.30;99.90
72936;DHT22;61085;48.804;9.228;2022-12-05T05:59:13;5.20;99.90
72936;DHT22;61085;48.804;9.228;2022-12-05T06:01:39;5.00;99.90
72936;DHT22;61085;48.804;9.228;2022-12-05T06:04:05;5.00;99.90
72936;DHT22;61085;48.804;9.228;2022-12-05T06:06:32;5.10;99.90
72936;DHT22;61085;48.804;9.228;2022-12-05T06:08:57;5.00;99.90
72936;DHT22;61085;48.804;9.228;2022-12-05T06:11:25;5.00;99.90
72936;DHT22;61085;48.804;9.228;2022-12-05T06:13:50;5.00;99.90
72936;DHT22;61085;48.804;9.228;2022-12-05T06:16:17;5.00;99.90
72936;DHT22;61085;48.804;9.228;2022-12-05T06:18:43;5.00;99.90
72936;DHT22;61085;48.804;9.228;2022-12-05T06:21:10;4.90;99.90
72936;DHT22;61085;48.804;9.228;2022-12-05T06:23:37;5.00;99.90
72936;DHT22;61085;48.804;9.228;2022-12-05T06:26:04;4.90;99.90
72936;DHT22;61085;48.804;9.228;2022-12-05T06:28:30;4.90;99.90
72936;DHT22;61085;48.804;9.228;2022-12-05T06:30:56;4.90;99.90
72936;DHT22;61085;48.804;9.228;2022-12-05T06:33:22;5.00;99.90
72936;DHT22;61085;48.804;9.228;2022-12-05T06:35:47;5.00;99.90
72936;DHT22;61085;48.804;9.228;2022-12-05T06:38:13;5.10;99.90
72936;DHT22;61085;48.804;9.228;2022-12-05T06:40:43;5.10;99.90
72936;DHT22;61085;48.804;9.228;2022-12-05T06:43:10;5.20;99.90
72936;DHT22;61085;48.804;9.228;2022-12-05T06:45:38;5.20;99.90
72936;DHT22;61085;48.804;9.228;2022-12-05T06:48:04;5.20;99.90
72936;DHT22;61085;48.804;9.228;2022-12-05T06:50:30;5.20;99.90
72936;DHT22;61085;48.804;9.228;2022-12-05T06:52:56;5.10;99.90
72936;DHT22;61085;48.804;9.228;2022-12-05T06:55:21;5.20;99.90
72936;DHT22;61085;48.804;9.228;2022-12-05T06:57:47;5.20;99.90
72936;DHT22;61085;48.804;9.228;2022-12-05T07:00:13;5.20;99.90
72936;DHT22;61085;48.804;9.228;2022-12-05T07:02:59;5.20;99.90
72936;DHT22;61085;48.804;9.228;2022-12-05T07:05:25;5.30;99.90
72936;DHT22;61085;48.804;9.228;2022-12-05T07:07:50;5.20;99.90
72936;DHT22;61085;48.804;9.228;2022-12-05T07:10:16;5.20;99.90
72936;DHT22;61085;48.804;9.228;2022-12-05T07:12:42;5.20;99.90
72936;DHT22;61085;48.804;9.228;2022-12-05T07:15:07;5.20;99.90
72936;DHT22;61085;48.804;9.228;2022-12-05T07:17:37;5.20;99.90
72936;DHT22;61085;48.804;9.228;2022-12-05T07:20:05;5.20;99.90
72936;DHT22;61085;48.804;9.228;2022-12-05T07:22:35;5.30;99.90
72936;DHT22;61085;48.804;9.228;2022-12-05T07:25:01;5.50;99.90
72936;DHT22;61085;48.804;9.228;2022-12-05T07:27:27;5.50;99.90
72936;DHT22;61085;48.804;9.228;2022-12-05T07:29:53;5.40;99.90
72936;DHT22;61085;48.804;9.228;2022-12-05T07:32:18;5.50;99.90
72936;DHT22;61085;48.804;9.228;2022-12-05T07:34:44;5.50;99.90
72936;DHT22;61085;48.804;9.228;2022-12-05T07:37:10;5.60;99.90
72936;DHT22;61085;48.804;9.228;2022-12-05T07:39:35;5.60;99.90
72936;DHT22;61085;48.804;9.228;2022-12-05T07:42:01;5.60;99.90
72936;DHT22;61085;48.804;9.228;2022-12-05T07:44:26;5.50;99.90
72936;DHT22;61085;48.804;9.228;2022-12-05T07:46:52;5.50;99.90
72936;DHT22;61085;48.804;9.228;2022-12-05T07:49:18;5.50;99.90
72936;DHT22;61085;48.804;9.228;2022-12-05T07:51:43;5.70;99.90
72936;DHT22;61085;48.804;9.228;2022-12-05T07:54:09;5.80;99.90
72936;DHT22;61085;48.804;9.228;2022-12-05T07:56:35;5.70;99.90
72936;DHT22;61085;48.804;9.228;2022-12-05T07:59:00;5.80;99.90
72936;DHT22;61085;48.804;9.228;2022-12-05T08:01:29;5.80;99.90
72936;DHT22;61085;48.804;9.228;2022-12-05T08:03:56;5.80;99.90
72936;DHT22;61085;48.804;9.228;2022-12-05T08:06:25;5.70;99.90
72936;DHT22;61085;48.804;9.228;2022-12-05T08:08:50;5.70;99.90
72936;DHT22;61085;48.804;9.228;2022-12-05T08:11:19;5.70;99.90
72936;DHT22;61085;48.804;9.228;2022-12-05T08:13:45;5.80;99.90
72936;DHT22;61085;48.804;9.228;2022-12-05T08:16:23;5.90;99.90
72936;DHT22;61085;48.804;9.228;2022-12-05T08:18:56;6.00;99.90
72936;DHT22;61085;48.804;9.228;2022-12-05T08:21:22;6.10;99.90
72936;DHT22;61085;48.804;9.228;2022-12-05T08:23:50;6.10;99.90
72936;DHT22;61085;48.804;9.228;2022-12-05T08:26:19;6.10;99.90
72936;DHT22;61085;48.804;9.228;2022-12-05T08:28:46;6.10;99.90
72936;DHT22;61085;48.804;9.228;2022-12-05T08:31:18;6.10;99.90
72936;DHT22;61085;48.804;9.228;2022-12-05T08:33:44;6.10;99.90
72936;DHT22;61085;48.804;9.228;2022-12-05T08:36:13;6.20;99.90
72936;DHT22;61085;48.804;9.228;2022-12-05T08:38:40;6.10;99.90
72936;DHT22;61085;48.804;9.228;2022-12-05T08:41:11;6.10;99.90
72936;DHT22;61085;48.804;9.228;2022-12-05T08:43:37;6.00;99.90
72936;DHT22;61085;48.804;9.228;2022-12-05T08:46:04;6.10;99.90
72936;DHT22;61085;48.804;9.228;2022-12-05T08:48:31;6.10;99.90
72936;DHT22;61085;48.804;9.228;2022-12-05T08:50:58;6.00;99.90
72936;DHT22;61085;48.804;9.228;2022-12-05T08:53:24;6.30;99.90
72936;DHT22;61085;48.804;9.228;2022-12-05T08:55:50;6.30;99.90
72936;DHT22;61085;48.804;9.228;2022-12-05T08:58:15;6.10;99.90
72936;DHT22;61085;48.804;9.228;2022-12-05T09:00:42;6.20;99.90
72936;DHT22;61085;48.804;9.228;2022-12-05T09:03:10;6.20;99.90
72936;DHT22;61085;48.804;9.228;2022-12-05T09:05:35;6.20;99.90
72936;DHT22;61085;48.804;9.228;2022-12-05T09:08:01;6.20;99.90
72936;DHT22;61085;48.804;9.228;2022-12-05T09:10:27;6.20;99.90
72936;DHT22;61085;48.804;9.228;2022-12-05T09:12:53;6.20;99.90
72936;DHT22;61085;48.804;9.228;2022-12-05T09:15:19;6.20;99.90
72936;DHT22;61085;48.804;9.228;2022-12-05T09:17:44;6.40;99.90
72936;DHT22;61085;48.804;9.228;2022-12-05T09:20:10;6.30;99.90
72936;DHT22;61085;48.804;9.228;2022-12-05T09:22:39;6.30;99.90
72936;DHT22;61085;48.804;9.228;2022-12-05T09:25:05;6.30;99.90
72936;DHT22;61085;48.804;9.228;2022-12-05T09:27:31;6.30;99.90
72936;DHT22;61085;48.804;9.228;2022-12-05T09:29:57;6.40;99.90
72936;DHT22;61085;48.804;9.228;2022-12-05T09:32:23;6.40;99.90
72936;DHT22;61085;48.804;9.228;2022-12-05T09:34:48;6.50;99.90
72936;DHT22;61085;48.804;9.228;2022-12-05T09:37:14;6.60;99.90
72936;DHT22;61085;48.804;9.228;2022-12-05T09:39:44;6.50;99.90
72936;DHT22;61085;48.804;9.228;2022-12-05T09:51:01;6.50;99.90
72936;DHT22;61085;48.804;9.228;2022-12-05T09:55:52;6.60;99.90
72936;DHT22;61085;48.804;9.228;2022-12-05T10:15:35;6.40;99.90
72936;DHT22;61085;48.804;9.228;2022-12-05T10:18:14;6.40;99.90
72936;DHT22;61085;48.804;9.228;2022-12-05T10:23:26;6.40;99.90
72936;DHT22;61085;48.804;9.228;2022-12-05T10:26:00;6.40;99.90
72936;DHT22;61085;48.804;9.228;2022-12-05T10:28:51;6.40;99.90
72936;DHT22;61085;48.804;9.228;2022-12-05T10:31:24;6.40;99.90
72936;DHT22;61085;48.804;9.228;2022-12-05T10:33:59;6.40;99.90
72936;DHT22;61085;48.804;9.228;2022-12-05T10:36:25;6.50;99.90
72936;DHT22;61085;48.804;9.228;2022-12-05T10:38:51;6.50;99.90
72936;DHT22;61085;48.804;9.228;2022-12-05T10:41:17;6.50;99.90
72936;DHT22;61085;48.804;9.228;2022-12-05T10:43:44;6.60;99.90
72936;DHT22;61085;48.804;9.228;2022-12-05T10:46:11;6.70;99.90
72936;DHT22;61085;48.804;9.228;2022-12-05T10:48:39;6.80;99.90
72936;DHT22;61085;48.804;9.228;2022-12-05T10:51:08;7.10;99.90
72936;DHT22;61085;48.804;9.228;2022-12-05T10:53:44;7.10;99.90
72936;DHT22;61085;48.804;9.228;2022-12-05T10:59:06;7.20;99.90
72936;DHT22;61085;48.804;9.228;2022-12-05T11:01:36;7.40;99.90
72936;DHT22;61085;48.804;9.228;2022-12-05T11:04:16;7.40;99.90
72936;DHT22;61085;48.804;9.228;2022-12-05T11:09:23;7.20;99.90
72936;DHT22;61085;48.804;9.228;2022-12-05T11:12:19;6.90;99.90
72936;DHT22;61085;48.804;9.228;2022-12-05T11:14:55;6.80;99.90
72936;DHT22;61085;48.804;9.228;2022-12-05T11:17:34;6.90;99.90
72936;DHT22;61085;48.804;9.228;2022-12-05T11:20:00;7.00;99.90
72936;DHT22;61085;48.804;9.228;2022-12-05T11:22:34;7.20;99.90
72936;DHT22;61085;48.804;9.228;2022-12-05T11:25:00;7.20;99.90
72936;DHT22;61085;48.804;9.228;2022-12-05T11:27:29;7.30;99.90
72936;DHT22;61085;48.804;9.228;2022-12-05T11:30:00;7.30;99.90
72936;DHT22;61085;48.804;9.228;2022-12-05T11:32:31;7.30;99.90
72936;DHT22;61085;48.804;9.228;2022-12-05T11:35:25;7.40;99.90
72936;DHT22;61085;48.804;9.228;2022-12-05T11:37:56;7.30;99.90
72936;DHT22;61085;48.804;9.228;2022-12-05T11:50:51;7.50;99.90
72936;DHT22;61085;48.804;9.228;2022-12-05T12:07:35;7.40;99.90
72936;DHT22;61085;48.804;9.228;2022-12-05T12:17:48;7.50;99.90
72936;DHT22;61085;48.804;9.228;2022-12-05T12:20:53;7.30;99.90
72936;DHT22;61085;48.804;9.228;2022-12-05T12:26:49;7.30;99.90
72936;DHT22;61085;48.804;9.228;2022-12-05T12:32:36;7.20;99.90
72936;DHT22;61085;48.804;9.228;2022-12-05T12:35:31;7.20;99.90
72936;DHT22;61085;48.804;9.228;2022-12-05T12:52:13;7.10;99.90
72936;DHT22;61085;48.804;9.228;2022-12-05T12:54:53;7.20;99.90
72936;DHT22;61085;48.804;9.228;2022-12-05T13:00:27;7.20;99.90
72936;DHT22;61085;48.804;9.228;2022-12-05T13:03:12;7.30;99.90
72936;DHT22;61085;48.804;9.228;2022-12-05T13:05:46;7.40;99.90
72936;DHT22;61085;48.804;9.228;2022-12-05T13:08:25;7.40;99.90
72936;DHT22;61085;48.804;9.228;2022-12-05T13:10:53;7.30;99.90
72936;DHT22;61085;48.804;9.228;2022-12-05T13:13:26;7.30;99.90
72936;DHT22;61085;48.804;9.228;2022-12-05T13:15:58;7.30;99.90
72936;DHT22;61085;48.804;9.228;2022-12-05T13:18:25;7.20;99.90
72936;DHT22;61085;48.804;9.228;2022-12-05T13:20:54;7.30;99.90
72936;DHT22;61085;48.804;9.228;2022-12-05T13:23:24;7.50;99.90
72936;DHT22;61085;48.804;9.228;2022-12-05T13:25:53;7.40;99.90
72936;DHT22;61085;48.804;9.228;2022-12-05T13:28:32;7.20;99.90
72936;DHT22;61085;48.804;9.228;2022-12-05T13:30:59;7.30;99.90
72936;DHT22;61085;48.804;9.228;2022-12-05T13:33:47;7.20;99.90
72936;DHT22;61085;48.804;9.228;2022-12-05T13:36:21;7.20;99.90
72936;DHT22;61085;48.804;9.228;2022-12-05T13:39:25;7.20;99.90
72936;DHT22;61085;48.804;9.228;2022-12-05T13:42:25;7.30;99.90
72936;DHT22;61085;48.804;9.228;2022-12-05T13:53:25;7.10;99.90
72936;DHT22;61085;48.804;9.228;2022-12-05T13:58:54;6.90;99.90
72936;DHT22;61085;48.804;9.228;2022-12-05T14:19:58;6.80;99.90
72936;DHT22;61085;48.804;9.228;2022-12-05T14:28:03;6.70;99.90
72936;DHT22;61085;48.804;9.228;2022-12-05T14:33:21;6.80;99.90
72936;DHT22;61085;48.804;9.228;2022-12-05T14:35:48;7.10;99.90
72936;DHT22;61085;48.804;9.228;2022-12-05T14:38:29;6.80;99.90
72936;DHT22;61085;48.804;9.228;2022-12-05T14:41:09;6.80;99.90
72936;DHT22;61085;48.804;9.228;2022-12-05T14:43:36;6.80;99.90
72936;DHT22;61085;48.804;9.228;2022-12-05T14:46:05;6.70;99.90
72936;DHT22;61085;48.804;9.228;2022-12-05T14:48:40;6.70;99.90
72936;DHT22;61085;48.804;9.228;2022-12-05T14:56:31;6.70;99.90
72936;DHT22;61085;48.804;9.228;2022-12-05T14:59:05;6.70;99.90
72936;DHT22;61085;48.804;9.228;2022-12-05T15:01:46;6.70;99.90
72936;DHT22;61085;48.804;9.228;2022-12-05T15:04:18;6.80;99.90
72936;DHT22;61085;48.804;9.228;2022-12-05T15:12:22;6.60;99.90
72936;DHT22;61085;48.804;9.228;2022-12-05T15:17:30;6.70;99.90
72936;DHT22;61085;48.804;9.228;2022-12-05T15:20:11;6.60;99.90
72936;DHT22;61085;48.804;9.228;2022-12-05T15:22:40;6.50;99.90
72936;DHT22;61085;48.804;9.228;2022-12-05T15:25:25;6.50;99.90
72936;DHT22;61085;48.804;9.228;2022-12-05T15:28:17;6.60;99.90
72936;DHT22;61085;48.804;9.228;2022-12-05T15:30:54;6.50;99.90
72936;DHT22;61085;48.804;9.228;2022-12-05T15:33:20;6.50;99.90
72936;DHT22;61085;48.804;9.228;2022-12-05T15:35:47;6.50;99.90
72936;DHT22;61085;48.804;9.228;2022-12-05T15:38:22;6.40;99.90
72936;DHT22;61085;48.804;9.228;2022-12-05T15:40:49;6.30;99.90
72936;DHT22;61085;48.804;9.228;2022-12-05T15:43:33;6.30;99.90
72936;DHT22;61085;48.804;9.228;2022-12-05T15:46:13;6.30;99.90
72936;DHT22;61085;48.804;9.228;2022-12-05T15:48:41;6.20;99.90
72936;DHT22;61085;48.804;9.228;2022-12-05T15:51:07;6.20;99.90
72936;DHT22;61085;48.804;9.228;2022-12-05T15:53:49;6.10;99.90
72936;DHT22;61085;48.804;9.228;2022-12-05T15:56:34;6.10;99.90
72936;DHT22;61085;48.804;9.228;2022-12-05T15:59:11;6.10;99.90
72936;DHT22;61085;48.804;9.228;2022-12-05T16:01:43;6.10;99.90
72936;DHT22;61085;48.804;9.228;2022-12-05T16:04:20;6.00;99.90
72936;DHT22;61085;48.804;9.228;2022-12-05T16:06:50;6.00;99.90
72936;DHT22;61085;48.804;9.228;2022-12-05T16:09:20;5.90;99.90
72936;DHT22;61085;48.804;9.228;2022-12-05T16:11:58;5.90;99.90
72936;DHT22;61085;48.804;9.228;2022-12-05T16:14:28;5.90;99.90
72936;DHT22;61085;48.804;9.228;2022-12-05T16:16:57;5.80;99.90
72936;DHT22;61085;48.804;9.228;2022-12-05T16:19:25;5.80;99.90
72936;DHT22;61085;48.804;9.228;2022-12-05T16:22:08;5.80;99.90
72936;DHT22;61085;48.804;9.228;2022-12-05T16:27:27;5.90;99.90
72936;DHT22;61085;48.804;9.228;2022-12-05T16:30:16;5.90;99.90
72936;DHT22;61085;48.804;9.228;2022-12-05T16:32:44;5.90;99.90
72936;DHT22;61085;48.804;9.228;2022-12-05T16:43:25;5.90;99.90
72936;DHT22;61085;48.804;9.228;2022-12-05T16:45:53;6.00;99.90
72936;DHT22;61085;48.804;9.228;2022-12-05T16:48:24;5.90;99.90
72936;DHT22;61085;48.804;9.228;2022-12-05T16:50:51;5.90;99.90
72936;DHT22;61085;48.804;9.228;2022-12-05T16:53:21;6.00;99.90
72936;DHT22;61085;48.804;9.228;2022-12-05T16:55:47;6.00;99.90
72936;DHT22;61085;48.804;9.228;2022-12-05T16:58:18;6.00;99.90
72936;DHT22;61085;48.804;9.228;2022-12-05T17:00:44;6.10;99.90
72936;DHT22;61085;48.804;9.228;2022-12-05T17:03:11;6.00;99.90
72936;DHT22;61085;48.804;9.228;2022-12-05T17:05:37;6.00;99.90
72936;DHT22;61085;48.804;9.228;2022-12-05T17:08:03;6.10;99.90
72936;DHT22;61085;48.804;9.228;2022-12-05T17:10:29;6.10;99.90
72936;DHT22;61085;48.804;9.228;2022-12-05T17:12:54;6.10;99.90
72936;DHT22;61085;48.804;9.228;2022-12-05T17:15:20;6.20;99.90
72936;DHT22;61085;48.804;9.228;2022-12-05T17:17:46;6.20;99.90
72936;DHT22;61085;48.804;9.228;2022-12-05T17:20:12;6.20;99.90
72936;DHT22;61085;48.804;9.228;2022-12-05T17:22:38;6.10;99.90
72936;DHT22;61085;48.804;9.228;2022-12-05T17:25:29;6.10;99.90
72936;DHT22;61085;48.804;9.228;2022-12-05T17:27:56;6.10;99.90
72936;DHT22;61085;48.804;9.228;2022-12-05T17:30:23;6.10;99.90
72936;DHT22;61085;48.804;9.228;2022-12-05T17:32:49;6.10;99.90
72936;DHT22;61085;48.804;9.228;2022-12-05T17:35:16;6.10;99.90
72936;DHT22;61085;48.804;9.228;2022-12-05T17:37:42;6.20;99.90
72936;DHT22;61085;48.804;9.228;2022-12-05T17:40:08;6.20;99.90
72936;DHT22;61085;48.804;9.228;2022-12-05T17:42:34;6.20;99.90
72936;DHT22;61085;48.804;9.228;2022-12-05T17:45:00;6.10;99.90
72936;DHT22;61085;48.804;9.228;2022-12-05T17:47:25;6.10;99.90
72936;DHT22;61085;48.804;9.228;2022-12-05T17:49:51;6.00;99.90
72936;DHT22;61085;48.804;9.228;2022-12-05T17:52:17;6.00;99.90
72936;DHT22;61085;48.804;9.228;2022-12-05T17:54:45;6.10;99.90
72936;DHT22;61085;48.804;9.228;2022-12-05T17:57:11;6.10;99.90
72936;DHT22;61085;48.804;9.228;2022-12-05T17:59:37;6.10;99.90
72936;DHT22;61085;48.804;9.228;2022-12-05T18:02:02;6.10;99.90
72936;DHT22;61085;48.804;9.228;2022-12-05T18:04:29;6.10;99.90
72936;DHT22;61085;48.804;9.228;2022-12-05T18:06:55;6.10;99.90
72936;DHT22;61085;48.804;9.228;2022-12-05T18:09:20;6.10;99.90
72936;DHT22;61085;48.804;9.228;2022-12-05T18:11:48;6.20;99.90
72936;DHT22;61085;48.804;9.228;2022-12-05T18:14:13;6.30;99.90
72936;DHT22;61085;48.804;9.228;2022-12-05T18:16:39;6.30;99.90
72936;DHT22;61085;48.804;9.228;2022-12-05T18:19:05;6.20;99.90
72936;DHT22;61085;48.804;9.228;2022-12-05T18:21:32;6.20;99.90
72936;DHT22;61085;48.804;9.228;2022-12-05T18:23:58;6.20;99.90
72936;DHT22;61085;48.804;9.228;2022-12-05T18:26:24;6.30;99.90
72936;DHT22;61085;48.804;9.228;2022-12-05T18:28:50;6.30;99.90
72936;DHT22;61085;48.804;9.228;2022-12-05T18:31:18;6.20;99.90
72936;DHT22;61085;48.804;9.228;2022-12-05T18:33:44;6.10;99.90
72936;DHT22;61085;48.804;9.228;2022-12-05T18:36:13;6.00;99.90
72936;DHT22;61085;48.804;9.228;2022-12-05T18:38:40;5.80;99.90
72936;DHT22;61085;48.804;9.228;2022-12-05T18:41:08;5.90;99.90
72936;DHT22;61085;48.804;9.228;2022-12-05T18:43:34;5.80;99.90
72936;DHT22;61085;48.804;9.228;2022-12-05T18:46:02;5.90;99.90
72936;DHT22;61085;48.804;9.228;2022-12-05T18:48:32;6.00;99.90
72936;DHT22;61085;48.804;9.228;2022-12-05T18:51:26;6.00;99.90
72936;DHT22;61085;48.804;9.228;2022-12-05T18:53:52;6.00;99.90
72936;DHT22;61085;48.804;9.228;2022-12-05T18:56:21;6.00;99.90
72936;DHT22;61085;48.804;9.228;2022-12-05T18:58:54;6.00;99.90
72936;DHT22;61085;48.804;9.228;2022-12-05T19:01:20;6.00;99.90
72936;DHT22;61085;48.804;9.228;2022-12-05T19:03:46;6.00;99.90
72936;DHT22;61085;48.804;9.228;2022-12-05T19:06:20;6.00;99.90
72936;DHT22;61085;48.804;9.228;2022-12-05T19:08:46;6.00;99.90
72936;DHT22;61085;48.804;9.228;2022-12-05T19:11:14;6.00;99.90